sensor_id;sensor_type;location;lat;lon;timestamp;P1;durP1;ratioP1;P2;durP2;ratioP2
25045;SDS011;13044;49.304;12.840;2023-02-15T00:00:05;75.22;;;17.73;;
25045;SDS011;13044;49.304;12.840;2023-02-15T00:02:37;43.60;;;16.37;;
25045;SDS011;13044;49.304;12.840;2023-02-15T00:05:06;68.40;;;17.63;;
25045;SDS011;13044;49.304;12.840;2023-02-15T00:07:35;61.83;;;17.45;;
25045;SDS011;13044;49.304;12.840;2023-02-15T00:10:02;45.83;;;16.20;;
25045;SDS011;13044;49.304;12.840;2023-02-15T00:12:30;40.38;;;17.25;;
25045;SDS011;13044;49.304;12.840;2023-02-15T00:14:57;35.15;;;17.42;;
25045;SDS011;13044;49.304;12.840;2023-02-15T00:17:26;42.75;;;16.50;;
25045;SDS011;13044;49.304;12.840;2023-02-15T00:19:54;38.58;;;17.65;;
25045;SDS011;13044;49.304;12.840;2023-02-15T00:22:21;33.28;;;17.10;;
25045;SDS011;13044;49.304;12.840;2023-02-15T00:24:49;33.58;;;15.95;;
25045;SDS011;13044;49.304;12.840;2023-02-15T00:27:16;32.35;;;17.17;;
25045;SDS011;13044;49.304;12.840;2023-02-15T00:29:43;34.50;;;16.65;;
25045;SDS011;13044;49.304;12.840;2023-02-15T00:32:09;35.67;;;17.30;;
25045;SDS011;13044;49.304;12.840;2023-02-15T00:34:36;33.70;;;17.75;;
25045;SDS011;13044;49.304;12.840;2023-02-15T00:37:03;34.97;;;17.80;;
25045;SDS011;13044;49.304;12.840;2023-02-15T00:39:32;28.30;;;15.07;;
25045;SDS011;13044;49.304;12.840;2023-02-15T00:41:59;31.25;;;15.98;;
25045;SDS011;13044;49.304;12.840;2023-02-15T00:44:27;30.52;;;16.63;;
25045;SDS011;13044;49.304;12.840;2023-02-15T00:46:54;28.17;;;15.93;;
25045;SDS011;13044;49.304;12.840;2023-02-15T00:49:21;30.38;;;15.98;;
25045;SDS011;13044;49.304;12.840;2023-02-15T00:51:48;29.75;;;16.15;;
25045;SDS011;13044;49.304;12.840;2023-02-15T00:54:15;28.35;;;15.20;;
25045;SDS011;13044;49.304;12.840;2023-02-15T00:56:43;28.27;;;15.85;;
25045;SDS011;13044;49.304;12.840;2023-02-15T00:59:10;27.60;;;15.02;;
25045;SDS011;13044;49.304;12.840;2023-02-15T01:01:37;28.50;;;15.70;;
25045;SDS011;13044;49.304;12.840;2023-02-15T01:04:04;26.73;;;15.73;;
25045;SDS011;13044;49.304;12.840;2023-02-15T01:06:33;31.52;;;15.98;;
25045;SDS011;13044;49.304;12.840;2023-02-15T01:09:00;29.73;;;14.93;;
25045;SDS011;13044;49.304;12.840;2023-02-15T01:11:27;27.10;;;14.55;;
25045;SDS011;13044;49.304;12.840;2023-02-15T01:13:57;28.90;;;14.65;;
25045;SDS011;13044;49.304;12.840;2023-02-15T01:16:25;29.80;;;14.43;;
25045;SDS011;13044;49.304;12.840;2023-02-15T01:18:54;27.15;;;15.05;;
25045;SDS011;13044;49.304;12.840;2023-02-15T01:21:22;26.83;;;14.75;;
25045;SDS011;13044;49.304;12.840;2023-02-15T01:23:50;33.78;;;15.25;;
25045;SDS011;13044;49.304;12.840;2023-02-15T01:26:17;30.05;;;15.98;;
25045;SDS011;13044;49.304;12.840;2023-02-15T01:28:47;30.38;;;15.48;;
25045;SDS011;13044;49.304;12.840;2023-02-15T01:31:15;36.25;;;16.48;;
25045;SDS011;13044;49.304;12.840;2023-02-15T01:33:44;32.15;;;16.63;;
25045;SDS011;13044;49.304;12.840;2023-02-15T01:36:13;29.00;;;14.68;;
25045;SDS011;13044;49.304;12.840;2023-02-15T01:38:40;31.75;;;16.33;;
25045;SDS011;13044;49.304;12.840;2023-02-15T01:41:08;31.75;;;15.90;;
25045;SDS011;13044;49.304;12.840;2023-02-15T01:43:56;30.15;;;15.95;;
25045;SDS011;13044;49.304;12.840;2023-02-15T01:46:36;30.38;;;16.55;;
25045;SDS011;13044;49.304;12.840;2023-02-15T01:49:16;30.25;;;15.40;;
25045;SDS011;13044;49.304;12.840;2023-02-15T01:51:47;33.38;;;17.23;;
25045;SDS011;13044;49.304;12.840;2023-02-15T01:54:20;35.25;;;16.13;;
25045;SDS011;13044;49.304;12.840;2023-02-15T01:56:51;31.75;;;16.38;;
25045;SDS011;13044;49.304;12.840;2023-02-15T01:59:21;35.15;;;16.80;;
25045;SDS011;13044;49.304;12.840;2023-02-15T02:01:53;32.25;;;17.10;;
25045;SDS011;13044;49.304;12.840;2023-02-15T02:04:35;32.97;;;17.05;;
25045;SDS011;13044;49.304;12.840;2023-02-15T02:07:22;29.77;;;15.82;;
25045;SDS011;13044;49.304;12.840;2023-02-15T02:09:54;37.15;;;16.27;;
25045;SDS011;13044;49.304;12.840;2023-02-15T02:12:21;31.23;;;15.63;;
25045;SDS011;13044;49.304;12.840;2023-02-15T02:14:50;30.67;;;16.23;;
25045;SDS011;13044;49.304;12.840;2023-02-15T02:17:21;31.50;;;16.60;;
25045;SDS011;13044;49.304;12.840;2023-02-15T02:20:25;39.40;;;17.23;;
25045;SDS011;13044;49.304;12.840;2023-02-15T02:31:53;36.28;;;17.08;;
25045;SDS011;13044;49.304;12.840;2023-02-15T02:46:26;28.77;;;15.02;;
25045;SDS011;13044;49.304;12.840;2023-02-15T02:49:04;36.90;;;16.05;;
25045;SDS011;13044;49.304;12.840;2023-02-15T02:51:31;30.60;;;15.05;;
25045;SDS011;13044;49.304;12.840;2023-02-15T02:53:58;48.50;;;16.77;;
25045;SDS011;13044;49.304;12.840;2023-02-15T02:56:34;36.53;;;16.63;;
25045;SDS011;13044;49.304;12.840;2023-02-15T02:59:16;34.63;;;15.65;;
25045;SDS011;13044;49.304;12.840;2023-02-15T03:01:49;44.20;;;16.05;;
25045;SDS011;13044;49.304;12.840;2023-02-15T03:04:31;29.10;;;14.73;;
25045;SDS011;13044;49.304;12.840;2023-02-15T03:07:06;33.75;;;15.90;;
25045;SDS011;13044;49.304;12.840;2023-02-15T03:09:41;32.05;;;15.23;;
25045;SDS011;13044;49.304;12.840;2023-02-15T03:12:20;31.38;;;15.27;;
25045;SDS011;13044;49.304;12.840;2023-02-15T03:15:03;27.60;;;14.80;;
25045;SDS011;13044;49.304;12.840;2023-02-15T03:17:45;29.73;;;14.57;;
25045;SDS011;13044;49.304;12.840;2023-02-15T03:20:27;34.30;;;14.57;;
25045;SDS011;13044;49.304;12.840;2023-02-15T03:23:06;29.92;;;14.77;;
25045;SDS011;13044;49.304;12.840;2023-02-15T03:25:40;31.00;;;14.70;;
25045;SDS011;13044;49.304;12.840;2023-02-15T03:28:15;31.48;;;14.73;;
25045;SDS011;13044;49.304;12.840;2023-02-15T03:30:51;28.90;;;14.35;;
25045;SDS011;13044;49.304;12.840;2023-02-15T03:33:22;27.48;;;14.55;;
25045;SDS011;13044;49.304;12.840;2023-02-15T03:35:53;27.98;;;14.20;;
25045;SDS011;13044;49.304;12.840;2023-02-15T03:41:32;30.50;;;14.57;;
25045;SDS011;13044;49.304;12.840;2023-02-15T03:44:37;28.27;;;13.90;;
25045;SDS011;13044;49.304;12.840;2023-02-15T03:47:13;28.63;;;14.70;;
25045;SDS011;13044;49.304;12.840;2023-02-15T03:52:19;51.67;;;15.07;;
25045;SDS011;13044;49.304;12.840;2023-02-15T03:54:48;25.13;;;13.75;;
25045;SDS011;13044;49.304;12.840;2023-02-15T03:57:26;26.73;;;14.10;;
25045;SDS011;13044;49.304;12.840;2023-02-15T04:00:15;29.25;;;14.52;;
25045;SDS011;13044;49.304;12.840;2023-02-15T04:03:22;38.72;;;14.55;;
25045;SDS011;13044;49.304;12.840;2023-02-15T04:06:06;30.10;;;14.40;;
25045;SDS011;13044;49.304;12.840;2023-02-15T04:08:34;31.67;;;14.23;;
25045;SDS011;13044;49.304;12.840;2023-02-15T04:11:19;25.60;;;12.93;;
25045;SDS011;13044;49.304;12.840;2023-02-15T04:13:46;43.95;;;14.32;;
25045;SDS011;13044;49.304;12.840;2023-02-15T04:16:12;34.47;;;13.85;;
25045;SDS011;13044;49.304;12.840;2023-02-15T04:18:41;27.67;;;13.52;;
25045;SDS011;13044;49.304;12.840;2023-02-15T04:21:29;27.70;;;14.32;;
25045;SDS011;13044;49.304;12.840;2023-02-15T04:24:15;29.35;;;14.88;;
25045;SDS011;13044;49.304;12.840;2023-02-15T04:27:01;25.67;;;13.57;;
25045;SDS011;13044;49.304;12.840;2023-02-15T04:29:30;26.80;;;13.88;;
25045;SDS011;13044;49.304;12.840;2023-02-15T04:31:58;26.38;;;14.48;;
25045;SDS011;13044;49.304;12.840;2023-02-15T04:34:29;22.45;;;10.65;;
25045;SDS011;13044;49.304;12.840;2023-02-15T04:36:56;25.33;;;12.65;;
25045;SDS011;13044;49.304;12.840;2023-02-15T04:39:23;30.23;;;13.45;;
25045;SDS011;13044;49.304;12.840;2023-02-15T04:41:50;28.38;;;13.85;;
25045;SDS011;13044;49.304;12.840;2023-02-15T04:44:17;24.98;;;14.30;;
25045;SDS011;13044;49.304;12.840;2023-02-15T04:46:44;29.48;;;14.60;;
25045;SDS011;13044;49.304;12.840;2023-02-15T04:49:11;26.30;;;13.10;;
25045;SDS011;13044;49.304;12.840;2023-02-15T04:51:37;24.80;;;12.43;;
25045;SDS011;13044;49.304;12.840;2023-02-15T04:54:04;31.35;;;13.25;;
25045;SDS011;13044;49.304;12.840;2023-02-15T04:56:31;26.63;;;13.43;;
25045;SDS011;13044;49.304;12.840;2023-02-15T04:59:00;26.35;;;13.50;;
25045;SDS011;13044;49.304;12.840;2023-02-15T05:01:27;25.33;;;13.55;;
25045;SDS011;13044;49.304;12.840;2023-02-15T05:03:55;23.52;;;12.90;;
25045;SDS011;13044;49.304;12.840;2023-02-15T05:06:22;21.17;;;11.68;;
25045;SDS011;13044;49.304;12.840;2023-02-15T05:08:49;26.08;;;13.40;;
25045;SDS011;13044;49.304;12.840;2023-02-15T05:11:16;25.60;;;13.18;;
25045;SDS011;13044;49.304;12.840;2023-02-15T05:13:43;23.13;;;12.73;;
25045;SDS011;13044;49.304;12.840;2023-02-15T05:16:10;25.13;;;13.50;;
25045;SDS011;13044;49.304;12.840;2023-02-15T05:18:37;23.80;;;13.13;;
25045;SDS011;13044;49.304;12.840;2023-02-15T05:23:31;29.10;;;13.00;;
25045;SDS011;13044;49.304;12.840;2023-02-15T05:25:58;32.45;;;13.75;;
25045;SDS011;13044;49.304;12.840;2023-02-15T05:28:43;29.95;;;13.82;;
25045;SDS011;13044;49.304;12.840;2023-02-15T05:31:11;38.42;;;14.55;;
25045;SDS011;13044;49.304;12.840;2023-02-15T05:33:41;27.23;;;13.45;;
25045;SDS011;13044;49.304;12.840;2023-02-15T05:36:08;28.40;;;14.30;;
25045;SDS011;13044;49.304;12.840;2023-02-15T05:38:36;34.92;;;14.70;;
25045;SDS011;13044;49.304;12.840;2023-02-15T05:41:07;29.52;;;13.38;;
25045;SDS011;13044;49.304;12.840;2023-02-15T05:43:38;27.67;;;14.45;;
25045;SDS011;13044;49.304;12.840;2023-02-15T05:46:05;51.65;;;15.63;;
25045;SDS011;13044;49.304;12.840;2023-02-15T05:48:32;38.13;;;13.88;;
25045;SDS011;13044;49.304;12.840;2023-02-15T05:51:01;73.78;;;15.18;;
25045;SDS011;13044;49.304;12.840;2023-02-15T05:53:34;27.33;;;12.90;;
25045;SDS011;13044;49.304;12.840;2023-02-15T05:56:04;41.67;;;13.45;;
25045;SDS011;13044;49.304;12.840;2023-02-15T05:58:34;44.60;;;14.43;;
25045;SDS011;13044;49.304;12.840;2023-02-15T06:01:09;25.08;;;13.95;;
25045;SDS011;13044;49.304;12.840;2023-02-15T06:03:39;30.75;;;15.98;;
25045;SDS011;13044;49.304;12.840;2023-02-15T06:06:07;35.05;;;15.23;;
25045;SDS011;13044;49.304;12.840;2023-02-15T06:08:35;53.33;;;16.17;;
25045;SDS011;13044;49.304;12.840;2023-02-15T06:11:04;33.33;;;14.45;;
25045;SDS011;13044;49.304;12.840;2023-02-15T06:13:32;41.80;;;16.42;;
25045;SDS011;13044;49.304;12.840;2023-02-15T06:16:04;43.50;;;16.98;;
25045;SDS011;13044;49.304;12.840;2023-02-15T06:18:32;61.15;;;14.43;;
25045;SDS011;13044;49.304;12.840;2023-02-15T06:20:59;49.03;;;14.70;;
25045;SDS011;13044;49.304;12.840;2023-02-15T06:23:26;40.53;;;14.40;;
25045;SDS011;13044;49.304;12.840;2023-02-15T06:25:53;25.10;;;13.35;;
25045;SDS011;13044;49.304;12.840;2023-02-15T06:28:20;54.85;;;16.08;;
25045;SDS011;13044;49.304;12.840;2023-02-15T06:30:48;47.00;;;15.35;;
25045;SDS011;13044;49.304;12.840;2023-02-15T06:33:15;46.58;;;14.07;;
25045;SDS011;13044;49.304;12.840;2023-02-15T06:35:42;69.93;;;16.40;;
25045;SDS011;13044;49.304;12.840;2023-02-15T06:38:14;35.20;;;15.50;;
25045;SDS011;13044;49.304;12.840;2023-02-15T06:40:41;60.92;;;16.13;;
25045;SDS011;13044;49.304;12.840;2023-02-15T06:43:08;37.25;;;14.00;;
25045;SDS011;13044;49.304;12.840;2023-02-15T06:45:35;53.60;;;14.55;;
25045;SDS011;13044;49.304;12.840;2023-02-15T06:48:03;108.07;;;17.55;;
25045;SDS011;13044;49.304;12.840;2023-02-15T06:50:32;83.90;;;16.20;;
25045;SDS011;13044;49.304;12.840;2023-02-15T06:53:00;93.43;;;16.90;;
25045;SDS011;13044;49.304;12.840;2023-02-15T06:55:28;69.65;;;14.07;;
25045;SDS011;13044;49.304;12.840;2023-02-15T06:57:55;72.75;;;17.58;;
25045;SDS011;13044;49.304;12.840;2023-02-15T07:00:22;55.22;;;15.52;;
25045;SDS011;13044;49.304;12.840;2023-02-15T07:02:53;70.25;;;15.77;;
25045;SDS011;13044;49.304;12.840;2023-02-15T07:05:22;34.72;;;14.88;;
25045;SDS011;13044;49.304;12.840;2023-02-15T07:07:57;55.33;;;16.70;;
25045;SDS011;13044;49.304;12.840;2023-02-15T07:10:26;57.42;;;15.38;;
25045;SDS011;13044;49.304;12.840;2023-02-15T07:12:54;45.95;;;16.33;;
25045;SDS011;13044;49.304;12.840;2023-02-15T07:15:21;38.58;;;14.63;;
25045;SDS011;13044;49.304;12.840;2023-02-15T07:17:49;30.85;;;15.80;;
25045;SDS011;13044;49.304;12.840;2023-02-15T07:20:18;43.42;;;16.80;;
25045;SDS011;13044;49.304;12.840;2023-02-15T07:22:48;24.48;;;11.85;;
25045;SDS011;13044;49.304;12.840;2023-02-15T07:25:16;31.85;;;14.60;;
25045;SDS011;13044;49.304;12.840;2023-02-15T07:27:46;34.67;;;15.68;;
25045;SDS011;13044;49.304;12.840;2023-02-15T07:30:14;40.17;;;18.08;;
25045;SDS011;13044;49.304;12.840;2023-02-15T07:32:44;27.90;;;15.13;;
25045;SDS011;13044;49.304;12.840;2023-02-15T07:35:30;34.55;;;14.15;;
25045;SDS011;13044;49.304;12.840;2023-02-15T07:37:59;59.05;;;18.60;;
25045;SDS011;13044;49.304;12.840;2023-02-15T07:40:27;33.05;;;16.38;;
25045;SDS011;13044;49.304;12.840;2023-02-15T07:42:56;27.88;;;14.32;;
25045;SDS011;13044;49.304;12.840;2023-02-15T07:45:25;30.48;;;14.77;;
25045;SDS011;13044;49.304;12.840;2023-02-15T07:47:53;56.13;;;17.13;;
25045;SDS011;13044;49.304;12.840;2023-02-15T07:50:21;28.77;;;14.70;;
25045;SDS011;13044;49.304;12.840;2023-02-15T07:52:48;30.10;;;14.40;;
25045;SDS011;13044;49.304;12.840;2023-02-15T07:55:15;56.35;;;16.08;;
25045;SDS011;13044;49.304;12.840;2023-02-15T07:57:43;60.42;;;15.30;;
25045;SDS011;13044;49.304;12.840;2023-02-15T08:00:12;42.40;;;16.30;;
25045;SDS011;13044;49.304;12.840;2023-02-15T08:02:48;85.50;;;15.93;;
25045;SDS011;13044;49.304;12.840;2023-02-15T08:05:41;64.13;;;16.33;;
25045;SDS011;13044;49.304;12.840;2023-02-15T08:08:10;37.85;;;14.43;;
25045;SDS011;13044;49.304;12.840;2023-02-15T08:10:59;38.97;;;15.90;;
25045;SDS011;13044;49.304;12.840;2023-02-15T08:16:42;119.97;;;17.23;;
25045;SDS011;13044;49.304;12.840;2023-02-15T08:19:24;86.07;;;17.33;;
25045;SDS011;13044;49.304;12.840;2023-02-15T08:21:54;93.60;;;15.75;;
25045;SDS011;13044;49.304;12.840;2023-02-15T08:24:31;104.57;;;16.45;;
25045;SDS011;13044;49.304;12.840;2023-02-15T08:27:00;105.13;;;17.42;;
25045;SDS011;13044;49.304;12.840;2023-02-15T08:29:32;134.18;;;18.80;;
25045;SDS011;13044;49.304;12.840;2023-02-15T08:32:03;69.82;;;16.60;;
25045;SDS011;13044;49.304;12.840;2023-02-15T08:34:34;69.70;;;15.63;;
25045;SDS011;13044;49.304;12.840;2023-02-15T08:37:06;135.30;;;17.92;;
25045;SDS011;13044;49.304;12.840;2023-02-15T08:39:33;65.10;;;14.70;;
25045;SDS011;13044;49.304;12.840;2023-02-15T08:42:01;97.30;;;15.73;;
25045;SDS011;13044;49.304;12.840;2023-02-15T08:44:28;77.47;;;15.35;;
25045;SDS011;13044;49.304;12.840;2023-02-15T08:46:56;111.13;;;17.27;;
25045;SDS011;13044;49.304;12.840;2023-02-15T08:49:28;59.25;;;12.43;;
25045;SDS011;13044;49.304;12.840;2023-02-15T08:51:57;93.05;;;16.25;;
25045;SDS011;13044;49.304;12.840;2023-02-15T08:54:24;46.45;;;14.32;;
25045;SDS011;13044;49.304;12.840;2023-02-15T08:56:51;133.70;;;15.88;;
25045;SDS011;13044;49.304;12.840;2023-02-15T08:59:20;42.75;;;14.93;;
25045;SDS011;13044;49.304;12.840;2023-02-15T09:01:49;56.80;;;14.85;;
25045;SDS011;13044;49.304;12.840;2023-02-15T09:04:20;127.68;;;16.88;;
25045;SDS011;13044;49.304;12.840;2023-02-15T09:06:49;103.65;;;14.23;;
25045;SDS011;13044;49.304;12.840;2023-02-15T09:09:18;42.33;;;14.13;;
25045;SDS011;13044;49.304;12.840;2023-02-15T09:11:50;100.47;;;15.07;;
25045;SDS011;13044;49.304;12.840;2023-02-15T09:14:24;82.97;;;13.93;;
25045;SDS011;13044;49.304;12.840;2023-02-15T09:16:53;44.22;;;15.07;;
25045;SDS011;13044;49.304;12.840;2023-02-15T09:19:23;46.65;;;13.00;;
25045;SDS011;13044;49.304;12.840;2023-02-15T09:21:51;33.58;;;13.02;;
25045;SDS011;13044;49.304;12.840;2023-02-15T09:24:18;77.20;;;14.38;;
25045;SDS011;13044;49.304;12.840;2023-02-15T09:26:48;43.05;;;14.10;;
25045;SDS011;13044;49.304;12.840;2023-02-15T09:29:16;43.38;;;13.30;;
25045;SDS011;13044;49.304;12.840;2023-02-15T09:31:46;31.77;;;11.95;;
25045;SDS011;13044;49.304;12.840;2023-02-15T09:34:19;41.60;;;12.73;;
25045;SDS011;13044;49.304;12.840;2023-02-15T09:36:48;46.00;;;13.27;;
25045;SDS011;13044;49.304;12.840;2023-02-15T09:44:46;47.40;;;14.10;;
25045;SDS011;13044;49.304;12.840;2023-02-15T09:50:30;29.63;;;15.52;;
25045;SDS011;13044;49.304;12.840;2023-02-15T09:56:31;33.70;;;14.07;;
25045;SDS011;13044;49.304;12.840;2023-02-15T10:05:21;25.80;;;13.45;;
25045;SDS011;13044;49.304;12.840;2023-02-15T10:08:31;27.02;;;13.27;;
25045;SDS011;13044;49.304;12.840;2023-02-15T10:18:00;25.70;;;14.48;;
25045;SDS011;13044;49.304;12.840;2023-02-15T10:20:37;27.88;;;15.50;;
25045;SDS011;13044;49.304;12.840;2023-02-15T10:23:34;22.08;;;13.30;;
25045;SDS011;13044;49.304;12.840;2023-02-15T10:26:31;23.27;;;12.82;;
25045;SDS011;13044;49.304;12.840;2023-02-15T10:32:13;25.13;;;14.65;;
25045;SDS011;13044;49.304;12.840;2023-02-15T10:46:15;23.38;;;12.95;;
25045;SDS011;13044;49.304;12.840;2023-02-15T10:52:54;19.52;;;12.25;;
25045;SDS011;13044;49.304;12.840;2023-02-15T10:55:31;21.95;;;12.63;;
25045;SDS011;13044;49.304;12.840;2023-02-15T11:07:24;18.67;;;11.57;;
25045;SDS011;13044;49.304;12.840;2023-02-15T11:12:49;21.02;;;13.02;;
25045;SDS011;13044;49.304;12.840;2023-02-15T11:15:25;21.30;;;13.32;;
25045;SDS011;13044;49.304;12.840;2023-02-15T11:18:03;20.08;;;12.20;;
25045;SDS011;13044;49.304;12.840;2023-02-15T11:20:55;17.25;;;9.88;;
25045;SDS011;13044;49.304;12.840;2023-02-15T11:23:30;21.90;;;13.07;;
25045;SDS011;13044;49.304;12.840;2023-02-15T11:26:00;25.73;;;13.65;;
25045;SDS011;13044;49.304;12.840;2023-02-15T11:28:37;24.90;;;13.40;;
25045;SDS011;13044;49.304;12.840;2023-02-15T11:31:18;24.02;;;13.43;;
25045;SDS011;13044;49.304;12.840;2023-02-15T11:33:56;20.65;;;13.13;;
25045;SDS011;13044;49.304;12.840;2023-02-15T11:36:34;24.52;;;14.43;;
25045;SDS011;13044;49.304;12.840;2023-02-15T11:39:11;23.92;;;13.45;;
25045;SDS011;13044;49.304;12.840;2023-02-15T11:41:46;19.75;;;12.07;;
25045;SDS011;13044;49.304;12.840;2023-02-15T11:46:59;22.15;;;13.88;;
25045;SDS011;13044;49.304;12.840;2023-02-15T11:49:31;23.55;;;13.43;;
25045;SDS011;13044;49.304;12.840;2023-02-15T11:52:01;26.08;;;14.35;;
25045;SDS011;13044;49.304;12.840;2023-02-15T11:54:33;24.05;;;13.48;;
25045;SDS011;13044;49.304;12.840;2023-02-15T11:57:11;21.92;;;13.27;;
25045;SDS011;13044;49.304;12.840;2023-02-15T12:00:01;24.42;;;14.60;;
25045;SDS011;13044;49.304;12.840;2023-02-15T12:02:46;23.23;;;13.95;;
25045;SDS011;13044;49.304;12.840;2023-02-15T12:05:19;23.33;;;13.73;;
25045;SDS011;13044;49.304;12.840;2023-02-15T12:08:03;24.95;;;13.65;;
25045;SDS011;13044;49.304;12.840;2023-02-15T12:13:25;24.60;;;13.95;;
25045;SDS011;13044;49.304;12.840;2023-02-15T12:15:53;25.33;;;13.52;;
25045;SDS011;13044;49.304;12.840;2023-02-15T12:18:57;27.77;;;13.95;;
25045;SDS011;13044;49.304;12.840;2023-02-15T12:21:33;30.33;;;13.68;;
25045;SDS011;13044;49.304;12.840;2023-02-15T12:26:41;26.65;;;14.38;;
25045;SDS011;13044;49.304;12.840;2023-02-15T12:29:12;22.48;;;13.35;;
25045;SDS011;13044;49.304;12.840;2023-02-15T12:31:44;25.67;;;14.23;;
25045;SDS011;13044;49.304;12.840;2023-02-15T12:34:25;27.92;;;15.70;;
25045;SDS011;13044;49.304;12.840;2023-02-15T12:36:58;28.20;;;15.48;;
25045;SDS011;13044;49.304;12.840;2023-02-15T12:39:29;25.55;;;14.88;;
25045;SDS011;13044;49.304;12.840;2023-02-15T12:44:29;28.77;;;15.25;;
25045;SDS011;13044;49.304;12.840;2023-02-15T12:49:32;26.90;;;14.35;;
25045;SDS011;13044;49.304;12.840;2023-02-15T12:52:04;30.13;;;15.13;;
25045;SDS011;13044;49.304;12.840;2023-02-15T12:54:43;24.27;;;14.75;;
25045;SDS011;13044;49.304;12.840;2023-02-15T13:00:02;27.67;;;15.48;;
25045;SDS011;13044;49.304;12.840;2023-02-15T13:02:55;25.30;;;14.63;;
25045;SDS011;13044;49.304;12.840;2023-02-15T13:05:39;27.52;;;15.77;;
25045;SDS011;13044;49.304;12.840;2023-02-15T13:08:11;29.33;;;15.52;;
25045;SDS011;13044;49.304;12.840;2023-02-15T13:13:51;27.40;;;15.43;;
25045;SDS011;13044;49.304;12.840;2023-02-15T13:16:24;30.23;;;15.65;;
25045;SDS011;13044;49.304;12.840;2023-02-15T13:18:58;25.35;;;13.98;;
25045;SDS011;13044;49.304;12.840;2023-02-15T13:21:33;30.02;;;16.52;;
25045;SDS011;13044;49.304;12.840;2023-02-15T13:24:07;30.73;;;15.95;;
25045;SDS011;13044;49.304;12.840;2023-02-15T13:29:23;29.30;;;16.25;;
25045;SDS011;13044;49.304;12.840;2023-02-15T13:32:04;30.80;;;17.17;;
25045;SDS011;13044;49.304;12.840;2023-02-15T13:34:50;35.13;;;16.13;;
25045;SDS011;13044;49.304;12.840;2023-02-15T13:40:06;29.45;;;16.63;;
25045;SDS011;13044;49.304;12.840;2023-02-15T13:42:41;32.67;;;16.05;;
25045;SDS011;13044;49.304;12.840;2023-02-15T13:48:41;30.80;;;16.10;;
25045;SDS011;13044;49.304;12.840;2023-02-15T13:54:08;30.52;;;16.30;;
25045;SDS011;13044;49.304;12.840;2023-02-15T14:05:21;27.73;;;15.98;;
25045;SDS011;13044;49.304;12.840;2023-02-15T14:13:56;25.92;;;15.52;;
25045;SDS011;13044;49.304;12.840;2023-02-15T14:23:17;32.78;;;17.13;;
25045;SDS011;13044;49.304;12.840;2023-02-15T14:26:22;29.52;;;16.33;;
25045;SDS011;13044;49.304;12.840;2023-02-15T14:32:52;30.25;;;16.45;;
25045;SDS011;13044;49.304;12.840;2023-02-15T14:35:04;34.80;;;15.95;;
25045;SDS011;13044;49.304;12.840;2023-02-15T14:43:39;32.25;;;17.45;;
25045;SDS011;13044;49.304;12.840;2023-02-15T14:49:25;28.02;;;16.15;;
25045;SDS011;13044;49.304;12.840;2023-02-15T14:51:58;30.67;;;17.42;;
25045;SDS011;13044;49.304;12.840;2023-02-15T15:07:42;29.85;;;16.95;;
25045;SDS011;13044;49.304;12.840;2023-02-15T15:12:50;32.58;;;17.27;;
25045;SDS011;13044;49.304;12.840;2023-02-15T15:25:47;29.27;;;17.35;;
25045;SDS011;13044;49.304;12.840;2023-02-15T15:31:07;33.42;;;18.83;;
25045;SDS011;13044;49.304;12.840;2023-02-15T15:43:34;29.85;;;17.33;;
25045;SDS011;13044;49.304;12.840;2023-02-15T15:49:23;29.70;;;17.27;;
25045;SDS011;13044;49.304;12.840;2023-02-15T15:51:59;28.15;;;16.42;;
25045;SDS011;13044;49.304;12.840;2023-02-15T15:54:29;30.58;;;17.88;;
25045;SDS011;13044;49.304;12.840;2023-02-15T15:56:57;31.95;;;18.10;;
25045;SDS011;13044;49.304;12.840;2023-02-15T15:59:31;33.83;;;17.90;;
25045;SDS011;13044;49.304;12.840;2023-02-15T16:02:03;35.15;;;18.67;;
25045;SDS011;13044;49.304;12.840;2023-02-15T16:04:33;45.42;;;22.13;;
25045;SDS011;13044;49.304;12.840;2023-02-15T16:07:13;45.05;;;20.80;;
25045;SDS011;13044;49.304;12.840;2023-02-15T16:09:53;37.00;;;20.25;;
25045;SDS011;13044;49.304;12.840;2023-02-15T16:12:33;34.40;;;18.92;;
25045;SDS011;13044;49.304;12.840;2023-02-15T16:15:04;38.45;;;20.55;;
25045;SDS011;13044;49.304;12.840;2023-02-15T16:17:43;32.92;;;18.60;;
25045;SDS011;13044;49.304;12.840;2023-02-15T16:23:21;34.70;;;19.55;;
25045;SDS011;13044;49.304;12.840;2023-02-15T16:29:14;34.03;;;19.60;;
25045;SDS011;13044;49.304;12.840;2023-02-15T16:31:43;38.63;;;19.25;;
25045;SDS011;13044;49.304;12.840;2023-02-15T16:37:26;35.65;;;19.17;;
25045;SDS011;13044;49.304;12.840;2023-02-15T16:39:58;33.72;;;17.98;;
25045;SDS011;13044;49.304;12.840;2023-02-15T16:42:26;41.45;;;18.63;;
25045;SDS011;13044;49.304;12.840;2023-02-15T16:47:42;33.15;;;18.50;;
25045;SDS011;13044;49.304;12.840;2023-02-15T16:50:17;34.65;;;18.77;;
25045;SDS011;13044;49.304;12.840;2023-02-15T16:52:53;35.38;;;19.58;;
25045;SDS011;13044;49.304;12.840;2023-02-15T16:55:21;34.58;;;18.70;;
25045;SDS011;13044;49.304;12.840;2023-02-15T16:57:52;34.03;;;19.23;;
25045;SDS011;13044;49.304;12.840;2023-02-15T17:00:25;31.33;;;18.20;;
25045;SDS011;13044;49.304;12.840;2023-02-15T17:03:06;36.60;;;19.50;;
25045;SDS011;13044;49.304;12.840;2023-02-15T17:05:52;33.55;;;16.23;;
25045;SDS011;13044;49.304;12.840;2023-02-15T17:08:33;43.60;;;21.42;;
25045;SDS011;13044;49.304;12.840;2023-02-15T17:11:12;47.45;;;23.77;;
25045;SDS011;13044;49.304;12.840;2023-02-15T17:19:17;40.97;;;21.33;;
25045;SDS011;13044;49.304;12.840;2023-02-15T17:21:54;36.60;;;20.38;;
25045;SDS011;13044;49.304;12.840;2023-02-15T17:26:58;37.17;;;20.00;;
25045;SDS011;13044;49.304;12.840;2023-02-15T17:29:38;37.15;;;19.80;;
25045;SDS011;13044;49.304;12.840;2023-02-15T17:32:17;32.90;;;19.05;;
25045;SDS011;13044;49.304;12.840;2023-02-15T17:34:51;34.88;;;19.17;;
25045;SDS011;13044;49.304;12.840;2023-02-15T17:37:31;40.17;;;20.38;;
25045;SDS011;13044;49.304;12.840;2023-02-15T17:42:52;37.83;;;21.17;;
25045;SDS011;13044;49.304;12.840;2023-02-15T17:45:20;41.55;;;20.85;;
25045;SDS011;13044;49.304;12.840;2023-02-15T17:47:52;29.20;;;15.35;;
25045;SDS011;13044;49.304;12.840;2023-02-15T17:50:22;35.83;;;19.98;;
25045;SDS011;13044;49.304;12.840;2023-02-15T17:52:52;38.15;;;20.08;;
25045;SDS011;13044;49.304;12.840;2023-02-15T17:55:22;37.33;;;20.88;;
25045;SDS011;13044;49.304;12.840;2023-02-15T17:58:07;39.50;;;21.85;;
25045;SDS011;13044;49.304;12.840;2023-02-15T18:00:45;37.60;;;20.08;;
25045;SDS011;13044;49.304;12.840;2023-02-15T18:03:50;36.35;;;20.45;;
25045;SDS011;13044;49.304;12.840;2023-02-15T18:06:39;45.72;;;21.75;;
25045;SDS011;13044;49.304;12.840;2023-02-15T18:09:26;43.28;;;21.90;;
25045;SDS011;13044;49.304;12.840;2023-02-15T18:12:17;39.03;;;20.98;;
25045;SDS011;13044;49.304;12.840;2023-02-15T18:14:49;43.20;;;22.48;;
25045;SDS011;13044;49.304;12.840;2023-02-15T18:17:17;41.35;;;22.67;;
25045;SDS011;13044;49.304;12.840;2023-02-15T18:19:44;40.40;;;22.02;;